Time;durP1;ratioP1;P1;durP2;ratioP2;P2;SDS_P1;SDS_P2;PMS_P1;PMS_P2;Temp;Humidity;BMP_temperature;BMP_pressure;BME280_temperature;BME280_humidity;BME280_pressure;Samples;Min_cycle;Max_cycle;Signal;HPM_P1;HPM_P2
2022/09/19 00:00:41;;;;;;;3.17;0.90;;;14.70;93.60;;;;;;4981054;28;20326;-82
2022/09/19 00:03:07;;;;;;;2.65;0.90;;;14.60;93.70;;;;;;4982671;28;20026;-82
2022/09/19 00:05:33;;;;;;;1.38;0.55;;;14.60;93.80;;;;;;4982227;28;20022;-81
2022/09/19 00:07:59;;;;;;;5.10;1.05;;;14.60;93.80;;;;;;4982469;28;20046;-82
2022/09/19 00:10:26;;;;;;;5.25;1.02;;;14.60;93.90;;;;;;4981977;28;20319;-81
2022/09/19 00:12:55;;;;;;;4.22;0.90;;;14.50;94.00;;;;;;4982115;28;20090;-81
2022/09/19 00:15:22;;;;;;;4.45;1.20;;;14.50;94.30;;;;;;4965131;28;20041;-82
2022/09/19 00:17:50;;;;;;;4.03;1.10;;;14.50;94.60;;;;;;4961767;28;20011;-82
2022/09/19 00:20:16;;;;;;;3.45;0.70;;;14.50;94.70;;;;;;4974392;28;20038;-82
2022/09/19 00:24:45;;;;;;;3.85;0.90;;;14.50;94.90;;;;;;4981992;28;20019;-81
2022/09/19 00:25:28;;;;;;;4.93;0.90;;;14.60;95.30;;;;;;4982024;28;20027;-82
2022/09/19 00:27:54;;;;;;;3.28;0.93;;;14.60;95.60;;;;;;4981867;28;20021;-82
2022/09/19 00:30:20;;;;;;;4.75;1.00;;;14.70;95.80;;;;;;4975295;28;20053;-82
2022/09/19 00:32:46;;;;;;;5.32;0.90;;;14.70;96.10;;;;;;4985452;28;20054;-82
2022/09/19 00:35:12;;;;;;;2.30;0.90;;;14.80;96.30;;;;;;4982563;28;20608;-81
2022/09/19 00:37:38;;;;;;;4.32;1.08;;;14.90;96.50;;;;;;4982062;28;20030;-82
2022/09/19 00:40:04;;;;;;;4.07;1.20;;;14.90;96.10;;;;;;4982290;28;20062;-81
2022/09/19 00:42:30;;;;;;;3.97;1.15;;;14.90;95.90;;;;;;4981956;28;20093;-82
2022/09/19 00:45:06;;;;;;;2.85;0.90;;;14.90;95.90;;;;;;4960664;28;20326;-81
2022/09/19 00:47:44;;;;;;;4.45;0.90;;;14.90;95.90;;;;;;4974514;28;20222;-81
2022/09/19 00:50:24;;;;;;;4.05;0.90;;;14.80;95.90;;;;;;4981651;28;20331;-82
2022/09/19 00:52:56;;;;;;;3.78;0.90;;;14.80;95.70;;;;;;4981994;28;20046;-81
2022/09/19 00:55:22;;;;;;;7.00;1.00;;;14.80;95.80;;;;;;4980163;28;20085;-82
2022/09/19 00:58:03;;;;;;;2.97;0.85;;;14.80;95.90;;;;;;4980364;28;20223;-81
2022/09/19 01:00:29;;;;;;;3.45;0.80;;;14.70;96.00;;;;;;4983538;28;20070;-82
2022/09/19 01:02:55;;;;;;;3.28;1.10;;;14.70;96.00;;;;;;4992668;28;20046;-82
2022/09/19 01:05:56;;;;;;;2.60;0.68;;;14.60;96.10;;;;;;4981569;28;20026;-81
2022/09/19 01:08:43;;;;;;;3.55;0.80;;;14.60;96.30;;;;;;4977564;28;20066;-81
2022/09/19 01:11:10;;;;;;;2.72;1.20;;;14.60;96.50;;;;;;4968395;28;20368;-81
2022/09/19 01:13:52;;;;;;;4.13;1.08;;;14.50;96.60;;;;;;4985069;28;20143;-82
2022/09/19 01:16:24;;;;;;;3.63;0.93;;;14.50;96.80;;;;;;4985317;28;20019;-81
2022/09/19 01:19:04;;;;;;;4.07;0.90;;;14.40;97.00;;;;;;4966869;28;20223;-82
2022/09/19 01:21:46;;;;;;;3.75;1.10;;;14.40;97.20;;;;;;4973510;28;20022;-82
2022/09/19 01:24:19;;;;;;;4.40;1.05;;;14.30;97.60;;;;;;4966011;28;20034;-82
2022/09/19 01:26:58;;;;;;;3.20;1.10;;;14.30;97.90;;;;;;4959231;29;20031;-81
2022/09/19 01:29:37;;;;;;;3.40;1.23;;;14.30;98.00;;;;;;4981439;28;20082;-82
2022/09/19 01:32:07;;;;;;;3.65;1.15;;;14.20;98.30;;;;;;4985011;28;20219;-82
2022/09/19 01:34:39;;;;;;;4.88;1.27;;;14.10;98.50;;;;;;4966898;28;20055;-82
2022/09/19 01:37:16;;;;;;;3.10;1.10;;;14.00;99.00;;;;;;4984832;28;20029;-81
2022/09/19 01:39:46;;;;;;;2.55;1.20;;;13.90;99.40;;;;;;4983745;28;20042;-82
2022/09/19 01:42:18;;;;;;;5.07;1.52;;;14.00;99.50;;;;;;4985097;28;20022;-82
2022/09/19 01:44:43;;;;;;;3.05;1.10;;;14.00;99.80;;;;;;4984817;28;20038;-81
2022/09/19 01:47:27;;;;;;;3.88;0.98;;;13.90;99.90;;;;;;4984795;28;20021;-81
2022/09/19 01:49:56;;;;;;;4.03;1.10;;;13.90;99.90;;;;;;4984571;28;20306;-82
2022/09/19 01:52:27;;;;;;;3.28;0.95;;;13.90;99.90;;;;;;4954030;28;20022;-81
2022/09/19 01:55:19;;;;;;;5.88;1.23;;;13.80;99.90;;;;;;4983537;28;20027;-81
2022/09/19 01:58:05;;;;;;;4.95;1.00;;;13.80;99.90;;;;;;4967142;28;20086;-81
2022/09/19 02:00:33;;;;;;;3.85;1.20;;;13.80;99.90;;;;;;4953268;28;20035;-81
2022/09/19 02:03:23;;;;;;;4.03;1.02;;;13.80;99.90;;;;;;4984590;28;20015;-82
2022/09/19 02:06:06;;;;;;;2.35;1.25;;;13.70;99.90;;;;;;4984250;28;20022;-81
2022/09/19 02:08:35;;;;;;;3.72;0.80;;;13.70;99.90;;;;;;4984536;28;20017;-81
2022/09/19 02:11:11;;;;;;;5.55;0.93;;;13.60;99.90;;;;;;4963525;28;20034;-81
2022/09/19 02:13:44;;;;;;;3.63;0.90;;;13.60;99.90;;;;;;4976568;28;20018;-81
2022/09/19 02:16:18;;;;;;;5.75;1.50;;;13.60;99.90;;;;;;4983650;28;20313;-81
2022/09/19 02:18:59;;;;;;;3.63;1.05;;;13.50;99.90;;;;;;4983487;28;20034;-82
2022/09/19 02:21:36;;;;;;;4.55;1.25;;;13.50;99.90;;;;;;4984131;28;20358;-82
2022/09/19 02:24:06;;;;;;;2.53;1.30;;;13.40;99.90;;;;;;4982891;28;20029;-81
2022/09/19 02:26:33;;;;;;;3.00;1.38;;;13.40;99.90;;;;;;4983883;28;20022;-81
2022/09/19 02:29:00;;;;;;;5.07;1.10;;;13.40;99.90;;;;;;4983149;28;20093;-82
2022/09/19 02:31:27;;;;;;;4.35;1.20;;;13.40;99.90;;;;;;4983204;28;20023;-82
2022/09/19 02:33:58;;;;;;;4.65;1.17;;;13.40;99.90;;;;;;4983862;28;20077;-81
2022/09/19 02:36:32;;;;;;;4.38;1.00;;;13.40;99.90;;;;;;4983348;28;20014;-82
2022/09/19 02:39:10;;;;;;;8.25;1.35;;;13.40;99.90;;;;;;4983958;28;20023;-82
2022/09/19 02:42:00;;;;;;;5.43;1.20;;;13.50;99.90;;;;;;4983547;28;20183;-82
2022/09/19 02:44:53;;;;;;;5.22;1.17;;;13.50;99.90;;;;;;4983704;28;20167;-81
2022/09/19 02:47:27;;;;;;;3.33;1.45;;;13.50;99.90;;;;;;4983596;28;20019;-81
2022/09/19 02:49:59;;;;;;;3.20;1.15;;;13.50;99.90;;;;;;4982926;28;20031;-81
2022/09/19 02:52:32;;;;;;;4.72;1.20;;;13.50;99.90;;;;;;4983634;28;20210;-82
2022/09/19 02:55:09;;;;;;;4.80;1.38;;;13.50;99.90;;;;;;4996663;28;20018;-81
2022/09/19 02:57:37;;;;;;;3.33;1.70;;;13.50;99.90;;;;;;4970818;28;20126;-81
2022/09/19 03:00:05;;;;;;;4.20;1.33;;;13.50;99.90;;;;;;4983521;28;20031;-81
2022/09/19 03:02:36;;;;;;;5.38;1.00;;;13.50;99.90;;;;;;4983421;28;20038;-82
2022/09/19 03:05:07;;;;;;;3.17;1.10;;;13.50;99.90;;;;;;4983496;28;20117;-82
2022/09/19 03:07:37;;;;;;;4.22;1.15;;;13.50;99.90;;;;;;4983352;28;20019;-82
2022/09/19 03:10:17;;;;;;;5.00;1.40;;;13.50;99.90;;;;;;4983222;28;20018;-82
2022/09/19 03:12:52;;;;;;;3.65;1.20;;;13.50;99.90;;;;;;4983347;28;20070;-81
2022/09/19 03:15:26;;;;;;;5.38;1.38;;;13.50;99.90;;;;;;4983593;28;20057;-82
2022/09/19 03:17:53;;;;;;;5.78;1.20;;;13.50;99.90;;;;;;4962750;29;20116;-84
2022/09/19 03:20:23;;;;;;;3.55;1.15;;;13.40;99.90;;;;;;4975302;28;20325;-84
2022/09/19 03:22:49;;;;;;;2.45;1.05;;;13.50;99.90;;;;;;4982823;28;20030;-83
2022/09/19 03:25:15;;;;;;;5.10;1.23;;;13.50;99.90;;;;;;4982874;28;20345;-81
2022/09/19 03:27:41;;;;;;;4.00;1.25;;;13.40;99.90;;;;;;4982844;28;20105;-82
2022/09/19 03:30:10;;;;;;;2.78;1.00;;;13.40;99.90;;;;;;4982490;28;20249;-82
2022/09/19 03:32:37;;;;;;;4.80;1.65;;;13.40;99.90;;;;;;4982731;28;20045;-81
2022/09/19 03:35:04;;;;;;;4.07;1.45;;;13.40;99.90;;;;;;4982908;28;20026;-82
2022/09/19 03:37:33;;;;;;;3.22;1.10;;;13.40;99.90;;;;;;4982898;28;20010;-81
2022/09/19 03:40:00;;;;;;;3.30;1.15;;;13.40;99.90;;;;;;4981995;28;20031;-82
2022/09/19 03:42:26;;;;;;;3.28;1.10;;;13.30;99.90;;;;;;4982644;28;20113;-82
2022/09/19 03:44:53;;;;;;;2.40;1.08;;;13.30;99.90;;;;;;4981825;28;20061;-81
2022/09/19 03:47:21;;;;;;;4.35;1.17;;;13.30;99.90;;;;;;4982630;28;20018;-82
2022/09/19 03:49:49;;;;;;;4.18;1.48;;;13.30;99.90;;;;;;4982696;28;20033;-82
2022/09/19 03:52:16;;;;;;;4.40;1.33;;;13.20;99.90;;;;;;4982199;28;20061;-81
2022/09/19 03:54:41;;;;;;;2.95;1.25;;;13.20;99.90;;;;;;4981624;28;20262;-81
2022/09/19 03:57:07;;;;;;;4.72;1.30;;;13.20;99.90;;;;;;4982518;28;20103;-82
2022/09/19 03:59:33;;;;;;;8.15;1.35;;;13.20;99.90;;;;;;4982531;28;20045;-81
2022/09/19 04:01:59;;;;;;;3.38;1.02;;;13.20;99.90;;;;;;4982394;28;20029;-81
2022/09/19 04:04:25;;;;;;;5.20;1.45;;;13.20;99.90;;;;;;4982561;28;20097;-82
2022/09/19 04:06:51;;;;;;;3.97;1.10;;;13.20;99.90;;;;;;4982537;28;20028;-82
2022/09/19 04:09:16;;;;;;;7.97;1.65;;;13.20;99.90;;;;;;4982396;28;20014;-82
2022/09/19 04:11:42;;;;;;;4.15;1.10;;;13.10;99.90;;;;;;4982400;28;20146;-81
2022/09/19 04:14:09;;;;;;;7.55;1.30;;;13.10;99.90;;;;;;4982245;28;20329;-81
2022/09/19 04:16:34;;;;;;;7.35;1.75;;;13.00;99.90;;;;;;4956158;29;20191;-81
2022/09/19 04:19:00;;;;;;;6.03;1.27;;;13.00;99.90;;;;;;4977685;28;20310;-81
2022/09/19 04:21:26;;;;;;;6.95;1.48;;;13.00;99.90;;;;;;4982321;28;20046;-81
2022/09/19 04:23:54;;;;;;;3.63;1.17;;;13.00;99.90;;;;;;4982190;28;20023;-81
2022/09/19 04:26:21;;;;;;;3.05;1.30;;;12.90;99.90;;;;;;4981924;28;20030;-81
2022/09/19 04:28:47;;;;;;;3.17;1.20;;;12.90;99.90;;;;;;4982299;28;20031;-81
2022/09/19 04:31:13;;;;;;;4.13;1.20;;;12.90;99.90;;;;;;4982668;28;20030;-81
2022/09/19 04:33:39;;;;;;;4.38;1.15;;;12.90;99.90;;;;;;4982127;28;20027;-81
2022/09/19 04:36:06;;;;;;;4.65;1.13;;;12.90;99.90;;;;;;4982056;28;20089;-82
2022/09/19 04:38:33;;;;;;;3.17;1.60;;;12.80;99.90;;;;;;4982312;28;20030;-81
2022/09/19 04:40:59;;;;;;;7.68;1.60;;;12.80;99.90;;;;;;4981932;28;20044;-81
2022/09/19 04:43:26;;;;;;;8.27;1.58;;;12.80;99.90;;;;;;4982229;28;20015;-81
2022/09/19 04:45:56;;;;;;;3.58;1.20;;;12.80;99.90;;;;;;4981997;28;20382;-81
2022/09/19 04:48:23;;;;;;;3.25;1.08;;;12.80;99.90;;;;;;4985319;28;20326;-81
2022/09/19 04:50:50;;;;;;;7.18;1.35;;;12.80;99.90;;;;;;4985880;28;20373;-81
2022/09/19 04:53:23;;;;;;;6.07;1.45;;;12.70;99.90;;;;;;4985780;28;20187;-81
2022/09/19 04:55:53;;;;;;;6.20;1.27;;;12.70;99.90;;;;;;4985683;28;20050;-81
2022/09/19 04:58:20;;;;;;;4.35;1.33;;;12.70;99.90;;;;;;4985501;28;20353;-82
2022/09/19 05:00:53;;;;;;;4.50;1.58;;;12.70;99.90;;;;;;4984409;28;20046;-82
2022/09/19 05:03:20;;;;;;;5.85;1.13;;;12.70;99.90;;;;;;4985024;28;20018;-82
2022/09/19 05:05:50;;;;;;;3.80;1.30;;;12.60;99.90;;;;;;4985338;28;20222;-82
2022/09/19 05:08:25;;;;;;;11.73;1.25;;;12.60;99.90;;;;;;4985573;28;20025;-81
2022/09/19 05:10:59;;;;;;;3.95;1.13;;;12.60;99.90;;;;;;4985264;28;20022;-81
2022/09/19 05:13:28;;;;;;;2.70;1.35;;;12.50;99.90;;;;;;4985535;28;20030;-80
2022/09/19 05:15:54;;;;;;;2.47;1.58;;;12.50;99.90;;;;;;4975947;28;20019;-79
2022/09/19 05:18:21;;;;;;;4.55;1.40;;;12.50;99.90;;;;;;4974495;28;20030;-79
2022/09/19 05:20:47;;;;;;;6.50;1.50;;;12.50;99.90;;;;;;4973962;28;20035;-79
2022/09/19 05:23:14;;;;;;;7.47;1.60;;;12.50;99.90;;;;;;4974513;28;20023;-79
2022/09/19 05:25:40;;;;;;;2.55;1.33;;;12.50;99.90;;;;;;4973301;28;20049;-79
2022/09/19 05:28:08;;;;;;;3.70;1.25;;;12.40;99.90;;;;;;4974201;28;20031;-79
2022/09/19 05:30:36;;;;;;;3.40;1.55;;;12.40;99.90;;;;;;4975246;28;20053;-79
2022/09/19 05:33:02;;;;;;;4.45;1.23;;;12.40;99.90;;;;;;4973702;28;20026;-79
2022/09/19 05:35:30;;;;;;;4.82;1.45;;;12.40;99.90;;;;;;4973973;28;20054;-82
2022/09/19 05:37:57;;;;;;;3.63;1.60;;;12.30;99.90;;;;;;4956190;28;20218;-82
2022/09/19 05:40:26;;;;;;;4.13;1.52;;;12.30;99.90;;;;;;4973542;28;20062;-82
2022/09/19 05:43:03;;;;;;;3.95;1.80;;;12.30;99.90;;;;;;4973585;28;20031;-82
2022/09/19 05:45:29;;;;;;;5.82;1.67;;;12.30;99.90;;;;;;4974126;28;20034;-81
2022/09/19 05:48:06;;;;;;;7.28;1.77;;;12.20;99.90;;;;;;4977058;28;20081;-81
2022/09/19 05:50:35;;;;;;;4.22;1.42;;;12.30;99.90;;;;;;4979015;28;20081;-78
2022/09/19 05:55:46;;;;;;;6.45;1.52;;;12.30;99.90;;;;;;4975114;28;20108;-79
2022/09/19 05:58:13;;;;;;;6.88;2.05;;;12.30;99.90;;;;;;4976419;28;20051;-79
2022/09/19 06:00:39;;;;;;;6.57;1.63;;;12.20;99.90;;;;;;4984195;28;20026;-80
2022/09/19 06:03:06;;;;;;;6.13;1.88;;;12.20;99.90;;;;;;4994298;28;20028;-86
2022/09/19 06:05:39;;;;;;;5.03;1.60;;;12.20;99.90;;;;;;4985487;28;20023;-84
2022/09/19 06:08:05;;;;;;;4.93;1.73;;;12.10;99.90;;;;;;4966215;28;20234;-84
2022/09/19 06:10:35;;;;;;;3.40;1.42;;;12.20;99.90;;;;;;4984107;28;20033;-84
2022/09/19 06:13:01;;;;;;;5.20;1.55;;;12.20;99.90;;;;;;4983963;28;20023;-84
2022/09/19 06:15:26;;;;;;;4.93;1.75;;;12.20;99.90;;;;;;4983699;28;20097;-86
2022/09/19 06:17:58;;;;;;;3.83;1.60;;;12.30;99.90;;;;;;4984106;28;20337;-86
2022/09/19 06:20:25;;;;;;;4.53;1.48;;;12.30;99.90;;;;;;4983822;28;20329;-86
2022/09/19 06:23:01;;;;;;;4.53;1.60;;;12.30;99.90;;;;;;4983602;28;20018;-86
2022/09/19 06:25:28;;;;;;;3.65;1.70;;;12.40;99.90;;;;;;4983390;28;20298;-85
2022/09/19 06:28:00;;;;;;;5.30;1.70;;;12.30;99.90;;;;;;4983118;28;20023;-85
2022/09/19 06:30:27;;;;;;;4.57;1.33;;;12.30;99.90;;;;;;4983765;28;20030;-87
2022/09/19 06:32:53;;;;;;;3.40;1.45;;;12.40;99.90;;;;;;4972457;28;20046;-83
2022/09/19 06:35:21;;;;;;;7.10;1.65;;;12.40;99.90;;;;;;4972830;28;20023;-83
2022/09/19 06:37:47;;;;;;;8.07;1.60;;;12.40;99.90;;;;;;4972830;28;20019;-83
2022/09/19 06:40:14;;;;;;;3.80;1.40;;;12.50;99.90;;;;;;4970591;28;20110;-83
2022/09/19 06:42:40;;;;;;;3.92;1.60;;;12.50;99.90;;;;;;4970799;28;20030;-83
2022/09/19 06:45:07;;;;;;;3.92;1.38;;;12.50;99.90;;;;;;4939744;28;20034;-83
2022/09/19 06:47:33;;;;;;;5.82;1.55;;;12.60;99.90;;;;;;4971062;28;20396;-83
2022/09/19 06:50:02;;;;;;;7.18;1.25;;;12.70;99.90;;;;;;4971501;28;20038;-83
2022/09/19 06:52:28;;;;;;;4.30;1.25;;;12.70;99.90;;;;;;4971174;28;20011;-83
2022/09/19 06:54:54;;;;;;;5.80;1.50;;;12.80;99.90;;;;;;4972245;28;20196;-83
2022/09/19 06:57:20;;;;;;;6.63;1.85;;;12.90;99.90;;;;;;4948238;28;20076;-83
2022/09/19 06:59:46;;;;;;;3.58;1.30;;;13.00;99.90;;;;;;4958928;28;20403;-83
2022/09/19 07:02:13;;;;;;;4.20;1.40;;;13.00;99.90;;;;;;4952948;28;20020;-83
2022/09/19 07:04:39;;;;;;;3.55;1.33;;;13.10;99.90;;;;;;4952615;28;20476;-83
2022/09/19 07:07:05;;;;;;;3.97;1.10;;;13.20;99.90;;;;;;4952291;29;20031;-83
2022/09/19 07:09:30;;;;;;;3.70;1.30;;;13.20;99.90;;;;;;4952277;28;20019;-83
2022/09/19 07:11:56;;;;;;;5.45;1.27;;;13.30;99.90;;;;;;4952680;29;20431;-83
2022/09/19 07:14:25;;;;;;;4.75;1.20;;;13.40;99.90;;;;;;4952503;28;20027;-82
2022/09/19 07:16:50;;;;;;;1.98;1.15;;;13.50;99.90;;;;;;4952772;29;20041;-83
2022/09/19 07:19:16;;;;;;;2.78;1.15;;;13.50;99.90;;;;;;4952458;29;20106;-83
2022/09/19 07:21:43;;;;;;;2.80;1.08;;;13.60;99.90;;;;;;4952431;28;20023;-83
2022/09/19 07:24:08;;;;;;;3.47;1.05;;;13.70;99.90;;;;;;4949296;28;20260;-83
2022/09/19 07:26:34;;;;;;;6.45;1.25;;;13.80;99.90;;;;;;4952230;28;20255;-83
2022/09/19 07:29:00;;;;;;;10.30;1.38;;;13.90;99.90;;;;;;4952293;29;20011;-83
2022/09/19 07:31:29;;;;;;;2.80;1.08;;;14.00;99.90;;;;;;4952311;28;20027;-83
2022/09/19 07:33:55;;;;;;;4.47;1.10;;;14.10;99.90;;;;;;4952475;29;20033;-83
2022/09/19 07:36:21;;;;;;;4.68;1.35;;;14.20;99.90;;;;;;4952417;28;20027;-83
2022/09/19 07:38:50;;;;;;;4.47;1.00;;;14.30;99.90;;;;;;4952117;28;20031;-83
2022/09/19 07:41:17;;;;;;;3.67;1.10;;;14.40;99.90;;;;;;4951923;28;20030;-83
2022/09/19 07:43:43;;;;;;;4.22;1.10;;;14.50;99.90;;;;;;4950739;29;20028;-83
2022/09/19 07:46:10;;;;;;;2.45;0.90;;;14.60;99.90;;;;;;4952046;28;20256;-83
2022/09/19 07:48:36;;;;;;;3.97;1.00;;;14.70;99.90;;;;;;4951844;28;20022;-83
2022/09/19 07:51:02;;;;;;;4.28;1.20;;;14.80;99.90;;;;;;4952042;28;20028;-83
2022/09/19 07:53:28;;;;;;;4.05;0.90;;;14.90;99.90;;;;;;4951808;28;20067;-83
2022/09/19 07:55:57;;;;;;;6.80;1.20;;;14.90;99.90;;;;;;4951992;29;20443;-83
2022/09/19 07:58:25;;;;;;;4.35;1.40;;;15.00;99.90;;;;;;4969649;28;20066;-83
2022/09/19 08:00:52;;;;;;;3.42;1.10;;;15.10;99.90;;;;;;4970993;28;20038;-83
2022/09/19 08:03:19;;;;;;;5.65;0.93;;;15.20;99.90;;;;;;4971308;28;20029;-83
2022/09/19 08:05:48;;;;;;;7.45;1.40;;;15.20;99.90;;;;;;4970752;28;20037;-83
2022/09/19 08:08:16;;;;;;;3.45;1.10;;;15.20;99.90;;;;;;4970903;28;20018;-83
2022/09/19 08:10:43;;;;;;;4.03;1.10;;;15.20;99.90;;;;;;4971001;28;20110;-83
2022/09/19 08:13:11;;;;;;;5.97;1.20;;;15.20;99.90;;;;;;4971084;28;20074;-83
2022/09/19 08:15:37;;;;;;;3.05;0.77;;;15.30;99.90;;;;;;4971011;28;20031;-83
2022/09/19 08:18:13;;;;;;;6.18;0.80;;;15.40;99.90;;;;;;4971125;28;20516;-83
2022/09/19 08:20:40;;;;;;;1.90;0.93;;;15.40;99.90;;;;;;4970828;28;20416;-83
2022/09/19 08:23:09;;;;;;;2.92;1.10;;;15.60;99.80;;;;;;4974285;28;20034;-82
2022/09/19 08:25:38;;;;;;;2.33;0.70;;;15.80;99.90;;;;;;4974854;28;20026;-83
2022/09/19 08:28:04;;;;;;;3.53;0.80;;;15.90;99.30;;;;;;4974699;28;20023;-83
2022/09/19 08:30:31;;;;;;;4.47;1.00;;;16.00;99.20;;;;;;4974703;28;20019;-83
2022/09/19 08:32:59;;;;;;;2.90;1.02;;;16.00;98.80;;;;;;4957345;28;20034;-82
2022/09/19 08:35:25;;;;;;;2.50;1.13;;;16.20;98.50;;;;;;4974866;28;20517;-83
2022/09/19 08:37:55;;;;;;;3.67;0.70;;;16.30;98.30;;;;;;4974879;28;20058;-83
2022/09/19 08:40:57;;;;;;;2.75;0.80;;;16.50;98.00;;;;;;4974612;28;20030;-83
2022/09/19 08:43:49;;;;;;;9.60;2.30;;;16.50;97.40;;;;;;4953990;28;20027;-83
2022/09/19 08:46:35;;;;;;;7.18;0.63;;;16.60;97.40;;;;;;4970544;28;20118;-83
2022/09/19 08:49:13;;;;;;;7.63;1.00;;;16.70;97.20;;;;;;4961435;28;20107;-83
2022/09/19 08:52:08;;;;;;;4.78;0.80;;;16.90;96.60;;;;;;4974238;28;20027;-83
2022/09/19 08:54:46;;;;;;;3.20;0.60;;;17.00;96.40;;;;;;4971983;28;20062;-83
2022/09/19 08:57:33;;;;;;;3.00;0.68;;;17.10;95.70;;;;;;4974289;28;20054;-83
2022/09/19 09:00:04;;;;;;;5.78;1.05;;;17.10;95.90;;;;;;4974416;28;20121;-83
2022/09/19 09:02:36;;;;;;;4.47;0.80;;;17.20;95.70;;;;;;4974165;28;20111;-83
2022/09/19 09:05:02;;;;;;;2.95;0.70;;;17.30;95.50;;;;;;4974259;28;20027;-83
2022/09/19 09:07:52;;;;;;;3.08;0.60;;;17.40;95.20;;;;;;4973916;28;20031;-83
2022/09/19 09:10:37;;;;;;;4.22;0.63;;;17.50;95.00;;;;;;4973992;28;20030;-83
2022/09/19 09:13:18;;;;;;;4.30;0.80;;;17.60;94.70;;;;;;4973976;28;20027;-83
2022/09/19 09:15:47;;;;;;;3.72;0.70;;;17.70;94.50;;;;;;4973963;28;20031;-83
2022/09/19 09:18:34;;;;;;;4.07;0.88;;;17.80;94.10;;;;;;4974071;28;20458;-83
2022/09/19 09:21:32;;;;;;;7.30;1.10;;;18.00;93.60;;;;;;4974027;28;20062;-83
2022/09/19 09:24:15;;;;;;;4.05;0.77;;;18.00;93.30;;;;;;4973884;28;20031;-83
2022/09/19 09:26:43;;;;;;;1.85;0.70;;;18.00;92.70;;;;;;4974275;28;20114;-83
2022/09/19 09:29:27;;;;;;;4.75;0.77;;;18.10;93.00;;;;;;4973622;28;20129;-84
2022/09/19 09:31:59;;;;;;;1.98;0.60;;;18.20;92.60;;;;;;4973746;28;20050;-83
2022/09/19 09:34:40;;;;;;;3.60;1.17;;;18.40;92.70;;;;;;4973504;28;20317;-83
2022/09/19 09:37:24;;;;;;;2.70;0.88;;;18.50;92.20;;;;;;4973836;28;20169;-83
2022/09/19 09:40:13;;;;;;;3.60;0.65;;;18.60;91.80;;;;;;4973464;28;20023;-84
2022/09/19 09:42:46;;;;;;;2.90;0.70;;;18.70;91.70;;;;;;4973634;28;20027;-83
2022/09/19 09:45:40;;;;;;;5.22;0.65;;;18.80;91.50;;;;;;4961600;28;20065;-83
2022/09/19 09:48:31;;;;;;;3.65;0.57;;;18.80;91.00;;;;;;4973409;28;20102;-83
2022/09/19 09:51:23;;;;;;;2.92;0.60;;;18.80;90.90;;;;;;4955900;28;20054;-83
2022/09/19 09:53:58;;;;;;;1.75;0.50;;;18.80;90.20;;;;;;4973247;28;20030;-83
2022/09/19 09:56:36;;;;;;;2.25;0.80;;;18.90;90.60;;;;;;4973004;28;20480;-83
2022/09/19 10:05:58;;;;;;;2.55;0.60;;;19.20;89.90;;;;;;4973201;28;20030;-83
2022/09/19 10:08:30;;;;;;;3.70;0.60;;;19.20;89.80;;;;;;4930841;28;20034;-83
2022/09/19 10:11:09;;;;;;;2.88;0.50;;;19.30;89.90;;;;;;4972736;28;20026;-83
2022/09/19 10:14:02;;;;;;;2.25;0.60;;;19.40;89.30;;;;;;4973008;28;20113;-83
2022/09/19 10:16:34;;;;;;;2.70;0.50;;;19.60;88.20;;;;;;4969446;28;20042;-84
2022/09/19 10:19:27;;;;;;;1.65;0.50;;;19.70;87.70;;;;;;4972732;28;20113;-85
2022/09/19 10:22:02;;;;;;;2.15;0.70;;;19.70;87.40;;;;;;4972562;28;20042;-84
2022/09/19 10:24:56;;;;;;;2.33;0.60;;;19.70;87.00;;;;;;4972659;28;20033;-85
2022/09/19 10:27:31;;;;;;;5.17;0.60;;;19.90;87.30;;;;;;4953673;28;20025;-84
2022/09/19 10:29:59;;;;;;;2.58;0.70;;;19.90;87.60;;;;;;4972804;28;20148;-80
2022/09/19 10:32:39;;;;;;;2.55;0.60;;;20.00;87.80;;;;;;4972742;28;20106;-81
2022/09/19 10:35:26;;;;;;;2.40;0.70;;;20.10;87.30;;;;;;4972469;28;20027;-80
2022/09/19 10:38:13;;;;;;;1.42;0.60;;;20.20;86.00;;;;;;4976838;28;20245;-80
2022/09/19 10:40:59;;;;;;;1.80;0.40;;;20.20;85.60;;;;;;4979009;28;20035;-80
2022/09/19 10:43:31;;;;;;;0.95;0.40;;;20.30;85.20;;;;;;4960874;28;20038;-81
2022/09/19 10:46:05;;;;;;;1.92;0.45;;;20.40;84.60;;;;;;4971577;28;20023;-81
2022/09/19 10:48:33;;;;;;;2.30;0.50;;;20.40;84.30;;;;;;4972448;28;20023;-81
2022/09/19 10:50:59;;;;;;;2.50;0.40;;;20.60;84.50;;;;;;4972221;28;20035;-81
2022/09/19 10:53:32;;;;;;;6.43;0.60;;;20.70;84.30;;;;;;4958934;28;20491;-81
2022/09/19 10:56:11;;;;;;;2.05;0.55;;;20.70;83.70;;;;;;4972331;28;20038;-81
2022/09/19 10:58:41;;;;;;;2.67;0.50;;;20.80;82.90;;;;;;4959617;28;20495;-81
2022/09/19 11:01:22;;;;;;;1.17;0.47;;;20.90;83.70;;;;;;4972246;28;20499;-81
2022/09/19 11:04:22;;;;;;;1.92;0.50;;;21.00;83.30;;;;;;4972065;28;20115;-81
2022/09/19 11:06:58;;;;;;;4.22;0.60;;;21.10;82.20;;;;;;4929291;28;20122;-80
2022/09/19 11:09:33;;;;;;;2.92;0.60;;;21.20;82.00;;;;;;4943661;29;20043;-81
2022/09/19 11:12:04;;;;;;;2.08;0.55;;;21.30;82.20;;;;;;4970478;28;20468;-81
2022/09/19 11:14:40;;;;;;;3.10;0.50;;;21.40;80.60;;;;;;4971771;28;20073;-81
2022/09/19 11:17:33;;;;;;;2.33;0.55;;;21.40;81.40;;;;;;4971934;28;20386;-81
2022/09/19 11:20:16;;;;;;;5.43;0.70;;;21.40;80.50;;;;;;4971764;28;20411;-81
2022/09/19 11:23:13;;;;;;;2.40;0.65;;;21.50;80.70;;;;;;4972177;28;20095;-81
2022/09/19 11:25:54;;;;;;;1.52;0.50;;;21.70;80.50;;;;;;4971555;28;20058;-80
2022/09/19 11:28:25;;;;;;;2.70;0.60;;;21.80;80.90;;;;;;4971569;28;20023;-81
2022/09/19 11:31:17;;;;;;;2.40;0.50;;;22.00;80.30;;;;;;4971434;28;20113;-81
2022/09/19 11:34:11;;;;;;;2.78;0.52;;;22.00;80.50;;;;;;4975778;28;20117;-81
2022/09/19 11:37:13;;;;;;;1.85;0.60;;;22.10;79.20;;;;;;4971614;28;20557;-81
2022/09/19 11:39:50;;;;;;;5.15;0.70;;;22.00;80.10;;;;;;4971337;28;20121;-81
2022/09/19 11:42:41;;;;;;;5.30;0.47;;;22.10;79.60;;;;;;4971412;28;20050;-81
2022/09/19 11:45:20;;;;;;;2.85;0.80;;;22.20;79.90;;;;;;4971414;28;20503;-80
2022/09/19 11:47:59;;;;;;;2.35;0.70;;;22.20;79.60;;;;;;4971639;28;20109;-81
2022/09/19 11:50:29;;;;;;;6.90;0.68;;;22.30;79.70;;;;;;4971353;28;20035;-81
2022/09/19 11:53:07;;;;;;;1.88;0.60;;;22.40;78.80;;;;;;4936021;29;20042;-80
2022/09/19 11:55:55;;;;;;;1.48;0.70;;;22.50;78.70;;;;;;4963671;28;20448;-81
2022/09/19 11:59:07;;;;;;;2.97;0.60;;;22.60;78.60;;;;;;4958639;28;20046;-81
2022/09/19 12:01:41;;;;;;;2.30;0.90;;;22.80;78.60;;;;;;4976701;28;20153;-81
2022/09/19 12:04:24;;;;;;;5.53;0.70;;;22.90;79.10;;;;;;4971204;28;20026;-80
2022/09/19 12:07:05;;;;;;;1.67;0.70;;;22.80;79.20;;;;;;4958465;28;20195;-80
2022/09/19 12:09:34;;;;;;;2.97;0.60;;;22.90;79.00;;;;;;4970771;28;20038;-81
2022/09/19 12:12:05;;;;;;;1.85;0.70;;;23.00;78.70;;;;;;4971086;28;20019;-81
2022/09/19 12:14:47;;;;;;;1.20;0.60;;;23.20;78.40;;;;;;4970810;28;20022;-81
2022/09/19 12:17:42;;;;;;;2.35;0.70;;;23.20;77.20;;;;;;4971004;28;20464;-81
2022/09/19 12:20:30;;;;;;;;;;;23.10;77.50;;;;;;4964329;28;20407;-81
2022/09/19 12:26:09;;;;;;;1.85;0.70;;;23.10;78.00;;;;;;4970875;28;20042;-80
2022/09/19 12:28:52;;;;;;;1.95;0.70;;;23.20;78.10;;;;;;4970759;28;20031;-81
2022/09/19 12:31:25;;;;;;;4.43;0.63;;;23.40;78.30;;;;;;4970737;28;20060;-80
2022/09/19 12:34:02;;;;;;;1.67;0.60;;;23.50;77.80;;;;;;4970494;28;20018;-81
2022/09/19 12:36:39;;;;;;;3.28;0.80;;;23.60;77.70;;;;;;4970857;28;20034;-81
2022/09/19 12:39:17;;;;;;;2.67;0.68;;;23.60;76.90;;;;;;4939793;28;20299;-80
2022/09/19 12:41:57;;;;;;;6.88;0.82;;;23.70;76.90;;;;;;4953403;28;20113;-81
2022/09/19 12:44:34;;;;;;;1.35;0.50;;;23.80;76.60;;;;;;4970787;28;20058;-81
2022/09/19 12:47:12;;;;;;;1.05;0.55;;;23.70;76.20;;;;;;4970695;28;20031;-81
2022/09/19 12:50:19;;;;;;;2.05;0.73;;;23.80;75.70;;;;;;4970486;28;20023;-81
2022/09/19 12:53:09;;;;;;;1.90;0.70;;;23.80;76.00;;;;;;4970387;28;20019;-81
2022/09/19 12:55:41;;;;;;;2.60;0.75;;;24.00;75.70;;;;;;4970372;28;20137;-80
2022/09/19 12:58:16;;;;;;;3.30;0.85;;;24.00;75.20;;;;;;4970350;28;20070;-81
2022/09/19 13:00:45;;;;;;;6.20;0.82;;;24.00;75.00;;;;;;4970484;28;20081;-81
2022/09/19 13:03:23;;;;;;;2.33;0.70;;;24.20;75.40;;;;;;4950083;28;20016;-81
2022/09/19 13:06:00;;;;;;;4.15;0.80;;;24.20;73.80;;;;;;4963401;28;20058;-81
2022/09/19 13:08:34;;;;;;;3.85;0.70;;;24.40;74.50;;;;;;4951755;28;20562;-81
2022/09/19 13:11:16;;;;;;;2.65;0.52;;;24.30;74.70;;;;;;4967471;28;20022;-81
2022/09/19 13:13:53;;;;;;;2.13;0.50;;;24.30;75.70;;;;;;4962035;28;20050;-81
2022/09/19 13:16:33;;;;;;;1.40;0.50;;;24.40;76.00;;;;;;4954174;28;20031;-81
2022/09/19 13:24:56;;;;;;;4.00;0.95;;;24.50;75.50;;;;;;4973932;28;20034;-81
2022/09/19 13:27:25;;;;;;;1.73;0.70;;;24.80;74.80;;;;;;4973896;28;20019;-81
2022/09/19 13:29:53;;;;;;;4.15;0.73;;;25.00;75.00;;;;;;4973673;28;20050;-81
2022/09/19 13:32:53;;;;;;;5.68;0.88;;;25.00;74.50;;;;;;4973713;28;20038;-81
2022/09/19 13:35:22;;;;;;;3.22;0.73;;;25.00;74.70;;;;;;4973448;28;20031;-81
2022/09/19 13:37:52;;;;;;;3.97;0.70;;;25.10;74.10;;;;;;4960084;28;20416;-81